Aviation Digital Data Service (ADDS)

Output produced by METARs form (1144 UTC 21 November 2018)
found at http://www.aviationweather.gov/metar/data/
 
LHBP 211130Z VRB03KT 4000 -DZ BR BKN004 OVC010 06/06 Q1016 TEMPO BKN006 OVC009 BECMG 5000
LHBP 211100Z VRB03KT 3200 -DZ BR BKN003 OVC008 06/06 Q1017 TEMPO BKN006 OVC009
LHBP 211030Z VRB03KT 2500 DZ BR OVC003 06/06 Q1017 BECMG 3200 -DZ
LHBP 211000Z VRB02KT 3200 -DZ BR OVC004 06/05 Q1016 NOSIG
LHBP 210930Z VRB03KT 3200 -DZ BR OVC004 05/05 Q1017 BECMG OVC005
LHBP 210900Z VRB01KT 3500 -DZ BR BKN003 OVC006 05/05 Q1016 NOSIG
LHBP 210830Z VRB03KT 2500 -DZ BR OVC003 05/05 Q1016 NOSIG
LHBP 210800Z 14004KT 2300 -DZ BR OVC003 05/05 Q1016 NOSIG
LHBP 210730Z 11005KT 2300 DZ BR OVC004 05/05 Q1016 TEMPO 1400 -DZ
LHBP 210700Z 11007KT 3000 -DZ BR BKN004 OVC008 05/05 Q1016 TEMPO 2500
LHBP 210630Z 12007KT 4000 -DZ BR BKN005 OVC009 05/05 Q1016 NOSIG
LHBP 210600Z 12008KT 3200 -DZ BR BKN003 OVC010 05/05 Q1015 NOSIG
TAF LHBP 211115Z 2112/2212 VRB03KT 5000 BR -DZ OVC009 
     TEMPO 2112/2116 2700 DZRA BR OVC003 
     TEMPO 2116/2120 4000 BR 
     TEMPO 2120/2212 1400 RA DZ BKN004 OVC010